Terminal Aerodrome Forecast
Issued by NWS

Home | Current Version | Previous Version | Text Only | Print | Product List | Glossary On
Versions: 1 2 3 4 5 6 7 8 9 10 11 12 13 14 15 16 17 18 19 20 21 22 23 24 25
390
FTUS45 KSLC 300431 AAA
TAFENV
TAF AMD
KENV 300431Z 3005/3024 25010G18KT P6SM -SHRA FEW050 BKN090
     FM300530 33004KT P6SM FEW090 BKN150
     FM301800 11008KT P6SM SCT090 SCT150
      AMD NOT SKED=

USA.gov is the U.S. government's official web portal to all federal, state and local government web resources and services.